Time;durP1;ratioP1;P1;durP2;ratioP2;P2;SDS_P1;SDS_P2;PMS_P1;PMS_P2;Temp;Humidity;BMP_temperature;BMP_pressure;BME280_temperature;BME280_humidity;BME280_pressure;Samples;Min_cycle;Max_cycle;Signal;HPM_P1;HPM_P2
2020/12/06 00:01:02;;;;;;;;;;;24.10;54.30;;;;;;5044789;28;20004;-76
2020/12/06 00:03:28;;;;;;;;;;;24.10;54.40;;;;;;5036324;28;19920;-76
2020/12/06 00:05:55;;;;;;;;;;;24.10;54.40;;;;;;5039247;28;20394;-74
2020/12/06 00:08:21;;;;;;;;;;;24.10;54.40;;;;;;5039445;28;19921;-76
2020/12/06 00:10:47;;;;;;;;;;;24.10;54.40;;;;;;5040963;28;19920;-77
2020/12/06 00:13:13;;;;;;;;;;;24.10;54.40;;;;;;5033164;28;19956;-74
2020/12/06 00:15:39;;;;;;;;;;;24.00;54.30;;;;;;5040617;28;19913;-77
2020/12/06 00:18:05;;;;;;;;;;;24.00;54.30;;;;;;5041907;28;19997;-77
2020/12/06 00:20:31;;;;;;;;;;;24.00;54.30;;;;;;5041897;28;20380;-76
2020/12/06 00:22:57;;;;;;;;;;;24.00;54.30;;;;;;5041109;28;19917;-77
2020/12/06 00:25:23;;;;;;;;;;;24.00;54.30;;;;;;5043041;28;19913;-76
2020/12/06 00:27:49;;;;;;;;;;;24.00;54.30;;;;;;5038755;28;20476;-75
2020/12/06 00:30:16;;;;;;;;;;;23.90;54.20;;;;;;5035413;28;19920;-76
2020/12/06 00:32:42;;;;;;;;;;;23.90;54.30;;;;;;5034409;28;19919;-77
2020/12/06 00:35:08;;;;;;;;;;;23.90;54.30;;;;;;5043705;28;20416;-77
2020/12/06 00:37:36;;;;;;;;;;;23.90;54.30;;;;;;5032927;28;19920;-74
2020/12/06 00:40:04;;;;;;;;;;;23.90;54.90;;;;;;5040992;28;20539;-77
2020/12/06 00:42:30;;;;;;;;;;;23.90;54.20;;;;;;5035972;28;20024;-76
2020/12/06 00:44:56;;;;;;;;;;;23.90;54.20;;;;;;5037789;28;19909;-75
2020/12/06 00:47:22;;;;;;;;;;;23.90;54.20;;;;;;5033214;28;20392;-77
2020/12/06 00:49:48;;;;;;;;;;;23.90;54.10;;;;;;5036047;28;20007;-75
2020/12/06 00:52:14;;;;;;;;;;;23.80;53.90;;;;;;5038326;28;19924;-76
2020/12/06 00:54:40;;;;;;;;;;;23.80;53.80;;;;;;5036415;28;19916;-76
2020/12/06 00:57:07;;;;;;;;;;;23.80;53.80;;;;;;5036560;28;19909;-77
2020/12/06 00:59:33;;;;;;;;;;;23.80;53.80;;;;;;5039555;28;20364;-77
2020/12/06 01:02:00;;;;;;;;;;;23.80;53.90;;;;;;5037040;28;20425;-77
2020/12/06 01:04:26;;;;;;;;;;;23.80;54.00;;;;;;5041384;28;20359;-73
2020/12/06 01:06:52;;;;;;;;;;;23.70;54.00;;;;;;5040071;28;19917;-73
2020/12/06 01:09:18;;;;;;;;;;;23.80;54.10;;;;;;5046403;28;19913;-76
2020/12/06 01:11:47;;;;;;;;;;;23.70;54.20;;;;;;5040931;28;19958;-77
2020/12/06 01:14:13;;;;;;;;;;;23.80;54.30;;;;;;5043035;28;19913;-76
2020/12/06 01:16:40;;;;;;;;;;;23.70;54.40;;;;;;5038935;28;19914;-76
2020/12/06 01:19:06;;;;;;;;;;;23.70;54.50;;;;;;5034203;28;20074;-75
2020/12/06 01:21:32;;;;;;;;;;;23.70;54.60;;;;;;5034559;28;19909;-75
2020/12/06 01:23:58;;;;;;;;;;;23.70;54.60;;;;;;5036338;28;19974;-76
2020/12/06 01:26:24;;;;;;;;;;;23.70;55.20;;;;;;5032801;28;20399;-76
2020/12/06 01:28:50;;;;;;;;;;;23.60;54.60;;;;;;5045137;28;19963;-74
2020/12/06 01:31:16;;;;;;;;;;;23.60;54.50;;;;;;5042480;28;19916;-76
2020/12/06 01:33:42;;;;;;;;;;;23.60;54.50;;;;;;5037745;28;19913;-76
2020/12/06 01:36:08;;;;;;;;;;;23.60;54.40;;;;;;5039569;28;19912;-76
2020/12/06 01:38:36;;;;;;;;;;;23.60;54.40;;;;;;5032848;28;20004;-74
2020/12/06 01:41:02;;;;;;;;;;;23.60;54.50;;;;;;5037129;28;19968;-76
2020/12/06 01:43:28;;;;;;;;;;;23.60;54.60;;;;;;5037660;28;19921;-74
2020/12/06 01:45:54;;;;;;;;;;;23.60;54.70;;;;;;5039203;28;19916;-73
2020/12/06 01:48:20;;;;;;;;;;;23.50;54.70;;;;;;5040758;28;19921;-75
2020/12/06 01:50:46;;;;;;;;;;;23.50;54.80;;;;;;5039277;28;20345;-76
2020/12/06 01:53:13;;;;;;;;;;;23.50;54.90;;;;;;5041576;28;19917;-75
2020/12/06 01:55:39;;;;;;;;;;;23.50;55.10;;;;;;5043643;28;19920;-75
2020/12/06 01:58:08;;;;;;;;;;;23.50;55.10;;;;;;5048182;28;20016;-75
2020/12/06 02:00:35;;;;;;;;;;;23.50;55.20;;;;;;5046403;28;19917;-75
2020/12/06 02:03:01;;;;;;;;;;;23.50;55.30;;;;;;5040565;28;19968;-75
2020/12/06 02:05:28;;;;;;;;;;;23.50;55.30;;;;;;5045001;28;20391;-70
2020/12/06 02:07:57;;;;;;;;;;;23.50;55.40;;;;;;5043506;28;19928;-68
2020/12/06 02:10:24;;;;;;;;;;;23.40;55.40;;;;;;5046149;28;20280;-66
2020/12/06 02:12:51;;;;;;;;;;;23.40;55.40;;;;;;5036420;28;20016;-66
2020/12/06 02:15:17;;;;;;;;;;;23.40;55.50;;;;;;5038311;28;19912;-69
2020/12/06 02:17:43;;;;;;;;;;;23.40;55.50;;;;;;5042366;28;19925;-65
2020/12/06 02:20:09;;;;;;;;;;;23.40;55.60;;;;;;5042914;28;19917;-69
2020/12/06 02:22:35;;;;;;;;;;;23.40;55.70;;;;;;5039593;28;19921;-74
2020/12/06 02:25:01;;;;;;;;;;;23.30;55.70;;;;;;5042417;28;19928;-66
2020/12/06 02:27:27;;;;;;;;;;;23.30;55.70;;;;;;5038672;28;20376;-67
2020/12/06 02:29:53;;;;;;;;;;;23.30;55.80;;;;;;5048321;28;20016;-65
2020/12/06 02:32:19;;;;;;;;;;;23.30;55.80;;;;;;5041868;28;19908;-66
2020/12/06 02:34:45;;;;;;;;;;;23.30;55.90;;;;;;5040654;28;19959;-66
2020/12/06 02:37:12;;;;;;;;;;;23.30;56.50;;;;;;5039710;28;20403;-66
2020/12/06 02:39:38;;;;;;;;;;;23.30;55.90;;;;;;5035841;28;19932;-66
2020/12/06 02:42:04;;;;;;;;;;;23.30;55.90;;;;;;5039154;28;19919;-66
2020/12/06 02:44:30;;;;;;;;;;;23.30;55.90;;;;;;5037784;28;20392;-67
2020/12/06 02:46:56;;;;;;;;;;;23.30;55.90;;;;;;5042137;28;19917;-68
2020/12/06 02:49:22;;;;;;;;;;;23.30;55.90;;;;;;5044809;28;19988;-67
2020/12/06 02:51:48;;;;;;;;;;;23.20;55.90;;;;;;5036058;28;20347;-66
2020/12/06 02:54:14;;;;;;;;;;;23.20;55.90;;;;;;5037673;28;19913;-68
2020/12/06 02:56:40;;;;;;;;;;;23.20;55.90;;;;;;5043447;28;19913;-66
2020/12/06 02:59:06;;;;;;;;;;;23.20;55.90;;;;;;5041556;28;19913;-65
2020/12/06 03:01:32;;;;;;;;;;;23.20;55.90;;;;;;5036023;28;19920;-67
2020/12/06 03:03:59;;;;;;;;;;;23.20;56.00;;;;;;5040035;28;20340;-74
2020/12/06 03:06:25;;;;;;;;;;;23.10;56.00;;;;;;5034087;28;19913;-74
2020/12/06 03:08:51;;;;;;;;;;;23.10;56.00;;;;;;5041696;28;19940;-65
2020/12/06 03:11:18;;;;;;;;;;;23.10;56.00;;;;;;5041844;28;19913;-68
2020/12/06 03:13:44;;;;;;;;;;;23.10;56.10;;;;;;5038374;28;20425;-69
2020/12/06 03:16:10;;;;;;;;;;;23.10;56.10;;;;;;5041044;28;19944;-66
2020/12/06 03:18:36;;;;;;;;;;;23.10;56.10;;;;;;5036904;28;19917;-66
2020/12/06 03:21:02;;;;;;;;;;;23.10;56.10;;;;;;5037958;28;19916;-68
2020/12/06 03:23:29;;;;;;;;;;;23.10;56.10;;;;;;5037588;28;19913;-66
2020/12/06 03:25:55;;;;;;;;;;;23.10;56.00;;;;;;5038970;28;20461;-66
2020/12/06 03:28:21;;;;;;;;;;;23.10;56.00;;;;;;5037725;28;19924;-66
2020/12/06 03:30:47;;;;;;;;;;;23.00;56.00;;;;;;5037671;28;19971;-75
2020/12/06 03:33:13;;;;;;;;;;;23.00;56.00;;;;;;5043595;28;20451;-74
2020/12/06 03:35:39;;;;;;;;;;;23.00;56.20;;;;;;5038022;28;19914;-76
2020/12/06 03:38:05;;;;;;;;;;;23.00;56.20;;;;;;5040411;28;21040;-75
2020/12/06 03:40:31;;;;;;;;;;;23.00;56.30;;;;;;5034863;28;19984;-75
2020/12/06 03:42:57;;;;;;;;;;;23.00;56.40;;;;;;5037072;28;20268;-75
2020/12/06 03:45:23;;;;;;;;;;;23.00;56.50;;;;;;5036136;28;19913;-75
2020/12/06 03:47:49;;;;;;;;;;;23.00;56.50;;;;;;5038059;28;20008;-72
2020/12/06 03:50:15;;;;;;;;;;;23.00;56.60;;;;;;5042908;28;20687;-73
2020/12/06 03:52:41;;;;;;;;;;;23.00;57.20;;;;;;5034803;28;19917;-75
2020/12/06 03:55:07;;;;;;;;;;;23.00;56.60;;;;;;5040126;28;20352;-75
2020/12/06 03:57:33;;;;;;;;;;;23.00;56.70;;;;;;5040341;28;19959;-75
2020/12/06 03:59:59;;;;;;;;;;;23.00;57.40;;;;;;5039673;28;19956;-74
2020/12/06 04:02:26;;;;;;;;;;;23.00;56.80;;;;;;5042597;28;19912;-75
2020/12/06 04:04:52;;;;;;;;;;;23.00;56.90;;;;;;5043979;28;19905;-73
2020/12/06 04:07:18;;;;;;;;;;;23.00;56.90;;;;;;5043477;28;20026;-76
2020/12/06 04:09:44;;;;;;;;;;;22.90;56.90;;;;;;5038131;28;20008;-73
2020/12/06 04:12:10;;;;;;;;;;;22.90;57.00;;;;;;5037565;28;20019;-73
2020/12/06 04:14:36;;;;;;;;;;;22.90;57.10;;;;;;5044877;28;19959;-74
2020/12/06 04:17:02;;;;;;;;;;;22.90;57.10;;;;;;5038606;28;20299;-72
2020/12/06 04:19:28;;;;;;;;;;;22.90;57.10;;;;;;5034073;28;20253;-74
2020/12/06 04:21:54;;;;;;;;;;;22.90;57.10;;;;;;5036444;28;19951;-73
2020/12/06 04:24:20;;;;;;;;;;;22.90;57.20;;;;;;5034761;28;20294;-72
2020/12/06 04:27:09;;;;;;;;;;;22.90;57.20;;;;;;5036781;28;19932;-67
2020/12/06 04:29:56;;;;;;;;;;;22.90;57.20;;;;;;5039444;28;19940;-75
2020/12/06 04:32:42;;;;;;;;;;;22.90;57.20;;;;;;5036803;28;20415;-75
2020/12/06 04:35:27;;;;;;;;;;;22.90;57.20;;;;;;5036798;28;19916;-74
2020/12/06 04:38:14;;;;;;;;;;;22.90;57.30;;;;;;5038492;28;19951;-76
2020/12/06 04:41:00;;;;;;;;;;;22.90;57.30;;;;;;5039898;28;19909;-69
2020/12/06 04:43:46;;;;;;;;;;;22.90;57.30;;;;;;5040187;28;19925;-76
2020/12/06 04:46:32;;;;;;;;;;;22.90;57.30;;;;;;5042437;28;20383;-73
2020/12/06 04:49:21;;;;;;;;;;;22.90;57.30;;;;;;5036911;28;19974;-73
2020/12/06 04:52:06;;;;;;;;;;;22.90;57.30;;;;;;5037866;28;20355;-76
2020/12/06 04:54:52;;;;;;;;;;;22.90;57.20;;;;;;5037574;28;19913;-75
2020/12/06 04:57:38;;;;;;;;;;;22.90;57.20;;;;;;5037422;28;19920;-70
2020/12/06 05:00:30;;;;;;;;;;;22.90;57.30;;;;;;5037664;28;20003;-76
2020/12/06 05:03:16;;;;;;;;;;;23.00;57.30;;;;;;5041841;28;20364;-77
2020/12/06 05:06:02;;;;;;;;;;;23.00;57.20;;;;;;5041952;28;19928;-77
2020/12/06 05:08:48;;;;;;;;;;;23.00;57.20;;;;;;5043224;28;19924;-75
2020/12/06 05:11:34;;;;;;;;;;;23.00;57.10;;;;;;5033695;28;19952;-70
2020/12/06 05:14:20;;;;;;;;;;;23.00;57.10;;;;;;5045705;28;20372;-67
2020/12/06 05:17:06;;;;;;;;;;;23.00;57.10;;;;;;5036544;28;20004;-70
2020/12/06 05:19:32;;;;;;;;;;;23.10;57.00;;;;;;5034379;28;19917;-74
2020/12/06 05:21:58;;;;;;;;;;;23.10;57.00;;;;;;5042023;28;19913;-73
2020/12/06 05:24:24;;;;;;;;;;;23.10;56.90;;;;;;5042307;28;19909;-70
2020/12/06 05:26:50;;;;;;;;;;;23.10;56.90;;;;;;5039480;28;20323;-69
2020/12/06 05:29:16;;;;;;;;;;;23.10;56.80;;;;;;5032796;28;19970;-74
2020/12/06 05:31:42;;;;;;;;;;;23.20;56.80;;;;;;5037379;28;19916;-74
2020/12/06 05:34:09;;;;;;;;;;;23.10;56.70;;;;;;5041672;28;19948;-73
2020/12/06 05:36:39;;;;;;;;;;;23.20;56.70;;;;;;5039780;28;19912;-74
2020/12/06 05:39:05;;;;;;;;;;;23.20;56.60;;;;;;5034275;28;19974;-73
2020/12/06 05:41:32;;;;;;;;;;;23.20;56.50;;;;;;5041216;28;20344;-74
2020/12/06 05:44:07;;;;;;;;;;;23.20;56.40;;;;;;5037451;28;20368;-72
2020/12/06 05:46:34;;;;;;;;;;;23.30;56.40;;;;;;5039232;28;20008;-75
2020/12/06 05:49:04;;;;;;;;;;;23.30;56.30;;;;;;5035404;28;19914;-71
2020/12/06 05:51:31;;;;;;;;;;;23.40;56.20;;;;;;5036878;28;19936;-74
2020/12/06 05:53:57;;;;;;;;;;;23.40;56.20;;;;;;5039113;28;20370;-75
2020/12/06 05:56:24;;;;;;;;;;;23.40;56.00;;;;;;5039830;28;19913;-75
2020/12/06 05:58:51;;;;;;;;;;;23.40;55.90;;;;;;5039692;28;20372;-72
2020/12/06 06:01:18;;;;;;;;;;;23.50;55.90;;;;;;5043191;28;19924;-74
2020/12/06 06:03:49;;;;;;;;;;;23.50;55.80;;;;;;5034538;28;19998;-73
2020/12/06 06:06:47;;;;;;;;;;;23.60;55.70;;;;;;5034231;28;20050;-74
2020/12/06 06:09:13;;;;;;;;;;;23.60;55.60;;;;;;5015989;28;19921;-73
2020/12/06 06:11:40;;;;;;;;;;;23.60;55.40;;;;;;5038215;28;19913;-71
2020/12/06 06:14:11;;;;;;;;;;;23.70;55.40;;;;;;5032914;28;20419;-75
2020/12/06 06:16:37;;;;;;;;;;;23.70;55.20;;;;;;5035945;28;22098;-73
2020/12/06 06:19:05;;;;;;;;;;;23.80;55.20;;;;;;5042399;28;19982;-73
2020/12/06 06:21:32;;;;;;;;;;;23.80;55.00;;;;;;5036658;28;19998;-73
2020/12/06 06:24:09;;;;;;;;;;;23.90;55.00;;;;;;5037260;28;19913;-75
2020/12/06 06:26:37;;;;;;;;;;;23.90;54.90;;;;;;5039654;28;20356;-74
2020/12/06 06:29:10;;;;;;;;;;;23.90;54.60;;;;;;5030082;28;19952;-73
2020/12/06 06:31:36;;;;;;;;;;;24.00;54.50;;;;;;5036365;28;19913;-70
2020/12/06 06:34:05;;;;;;;;;;;24.00;54.40;;;;;;5045808;28;19935;-71
2020/12/06 06:36:32;;;;;;;;;;;24.10;54.40;;;;;;5039494;28;20299;-74
2020/12/06 06:38:58;;;;;;;;;;;24.10;54.30;;;;;;5041969;28;19913;-70
2020/12/06 06:41:44;;;;;;;;;;;24.10;54.20;;;;;;5031638;28;19917;-73
2020/12/06 06:44:30;;;;;;;;;;;24.20;54.10;;;;;;5042440;28;19972;-73
2020/12/06 06:47:25;;;;;;;;;;;24.20;54.00;;;;;;5041036;28;20257;-73
2020/12/06 06:50:11;;;;;;;;;;;24.30;53.90;;;;;;5036296;28;19924;-72
2020/12/06 06:52:57;;;;;;;;;;;24.30;53.70;;;;;;5048280;28;19950;-69
2020/12/06 06:55:43;;;;;;;;;;;24.30;53.60;;;;;;5035999;28;20350;-72
2020/12/06 06:58:29;;;;;;;;;;;24.40;53.40;;;;;;5038100;28;19914;-70
2020/12/06 07:01:13;;;;;;;;;;;24.50;53.30;;;;;;5039251;28;20280;-67
2020/12/06 07:03:59;;;;;;;;;;;24.50;53.10;;;;;;5035828;28;20424;-67
2020/12/06 07:06:44;;;;;;;;;;;24.60;52.90;;;;;;5046126;28;19913;-67
2020/12/06 07:09:30;;;;;;;;;;;24.60;52.60;;;;;;5039672;28;19936;-72
2020/12/06 07:12:19;;;;;;;;;;;24.70;52.50;;;;;;5039120;28;19956;-70
2020/12/06 07:15:05;;;;;;;;;;;24.80;52.30;;;;;;5041938;28;20359;-70
2020/12/06 07:17:51;;;;;;;;;;;24.80;52.10;;;;;;5044693;28;19920;-67
2020/12/06 07:20:37;;;;;;;;;;;24.80;51.90;;;;;;5043681;28;19909;-68
2020/12/06 07:23:23;;;;;;;;;;;24.90;51.70;;;;;;5041729;28;19948;-67
2020/12/06 07:26:08;;;;;;;;;;;24.90;51.60;;;;;;5044624;28;19994;-69
2020/12/06 07:28:54;;;;;;;;;;;25.00;51.50;;;;;;5034903;28;20459;-67
2020/12/06 07:31:40;;;;;;;;;;;25.00;51.40;;;;;;5037638;28;19917;-67
2020/12/06 07:34:26;;;;;;;;;;;25.10;51.30;;;;;;5050934;28;19992;-68
2020/12/06 07:37:12;;;;;;;;;;;25.10;51.20;;;;;;5045347;28;19920;-74
2020/12/06 07:40:01;;;;;;;;;;;25.20;51.10;;;;;;5037737;28;19914;-74
2020/12/06 07:42:47;;;;;;;;;;;25.20;50.90;;;;;;5045133;28;19917;-73
2020/12/06 07:45:33;;;;;;;;;;;25.30;50.90;;;;;;5037063;28;19968;-72
2020/12/06 07:48:19;;;;;;;;;;;25.30;50.80;;;;;;5041105;28;20284;-74
2020/12/06 07:51:04;;;;;;;;;;;25.40;50.60;;;;;;5044312;28;19932;-70
2020/12/06 07:53:51;;;;;;;;;;;25.40;50.30;;;;;;5039666;28;19913;-68
2020/12/06 07:56:36;;;;;;;;;;;25.40;50.00;;;;;;5033881;28;19913;-70
2020/12/06 07:59:06;;;;;;;;;;;25.40;50.10;;;;;;5038667;28;20281;-68
2020/12/06 08:01:51;;;;;;;;;;;25.40;50.10;;;;;;5038905;28;19913;-69
2020/12/06 08:04:38;;;;;;;;;;;25.40;50.10;;;;;;5033980;28;20256;-68
2020/12/06 08:07:24;;;;;;;;;;;25.40;50.10;;;;;;5036502;28;19924;-67
2020/12/06 08:10:10;;;;;;;;;;;25.40;50.20;;;;;;5039785;28;19913;-68
2020/12/06 08:12:56;;;;;;;;;;;25.40;50.20;;;;;;5037422;28;19921;-69
2020/12/06 08:15:42;;;;;;;;;;;25.40;50.20;;;;;;5034963;28;19913;-68
2020/12/06 08:18:31;;;;;;;;;;;25.40;50.20;;;;;;5035265;28;19912;-72
2020/12/06 08:21:17;;;;;;;;;;;25.40;50.20;;;;;;5039088;28;20600;-66
2020/12/06 08:24:03;;;;;;;;;;;25.40;50.30;;;;;;5042662;28;19971;-71
2020/12/06 08:26:55;;;;;;;;;;;25.40;50.20;;;;;;5040341;28;20122;-67
2020/12/06 08:29:42;;;;;;;;;;;25.40;50.20;;;;;;5039065;28;19925;-70
2020/12/06 08:32:27;;;;;;;;;;;25.40;50.20;;;;;;5036657;28;20376;-71
2020/12/06 08:35:13;;;;;;;;;;;25.40;50.10;;;;;;5044049;28;19959;-69
2020/12/06 08:37:59;;;;;;;;;;;25.40;50.10;;;;;;5040309;28;19939;-68
2020/12/06 08:40:45;;;;;;;;;;;25.40;50.10;;;;;;5044795;28;19955;-71
2020/12/06 08:43:31;;;;;;;;;;;25.40;50.00;;;;;;5035748;28;19943;-69
2020/12/06 08:46:26;;;;;;;;;;;25.50;49.90;;;;;;5036715;28;20008;-67
2020/12/06 08:49:12;;;;;;;;;;;25.50;49.80;;;;;;5041086;28;19921;-68
2020/12/06 08:52:14;;;;;;;;;;;25.60;49.70;;;;;;5032156;28;20157;-67
2020/12/06 08:55:00;;;;;;;;;;;25.60;49.50;;;;;;5038371;28;19917;-68
2020/12/06 08:57:46;;;;;;;;;;;25.60;49.30;;;;;;5040339;28;19913;-67
2020/12/06 09:00:32;;;;;;;;;;;25.60;49.10;;;;;;5038905;28;19970;-67
2020/12/06 09:03:18;;;;;;;;;;;25.70;49.10;;;;;;5039171;28;20027;-72
2020/12/06 09:06:07;;;;;;;;;;;25.70;48.90;;;;;;5039782;28;20277;-72
2020/12/06 09:08:53;;;;;;;;;;;25.80;48.90;;;;;;5032720;28;19925;-68
2020/12/06 09:11:39;;;;;;;;;;;25.80;48.70;;;;;;5034040;28;19910;-71
2020/12/06 09:14:25;;;;;;;;;;;25.90;48.70;;;;;;5034403;28;20282;-72
2020/12/06 09:17:11;;;;;;;;;;;25.90;48.50;;;;;;5037508;28;19954;-74
2020/12/06 09:19:57;;;;;;;;;;;25.90;48.70;;;;;;5033031;28;19913;-72
2020/12/06 09:22:43;;;;;;;;;;;26.00;48.80;;;;;;5031349;28;19971;-69
2020/12/06 09:25:29;;;;;;;;;;;26.00;48.80;;;;;;5038529;28;19956;-73
2020/12/06 09:28:15;;;;;;;;;;;26.00;48.70;;;;;;5037378;28;19920;-70
2020/12/06 09:31:00;;;;;;;;;;;26.00;48.60;;;;;;5032811;28;19999;-73
2020/12/06 09:33:46;;;;;;;;;;;26.10;48.60;;;;;;5034552;28;19926;-70
2020/12/06 09:36:32;;;;;;;;;;;26.10;48.60;;;;;;5041255;28;20356;-74
2020/12/06 09:39:18;;;;;;;;;;;26.10;48.60;;;;;;5030995;28;20007;-72
2020/12/06 09:42:04;;;;;;;;;;;26.10;48.60;;;;;;5032972;28;19977;-69
2020/12/06 09:44:50;;;;;;;;;;;26.10;48.60;;;;;;5037874;28;19927;-71
2020/12/06 09:47:36;;;;;;;;;;;26.10;48.60;;;;;;5034405;28;19987;-73
2020/12/06 09:50:22;;;;;;;;;;;26.20;48.70;;;;;;5034697;28;19913;-71
2020/12/06 09:53:08;;;;;;;;;;;26.30;48.80;;;;;;5038904;28;19916;-73
2020/12/06 09:55:54;;;;;;;;;;;26.30;48.80;;;;;;5034227;28;19925;-70
2020/12/06 09:58:39;;;;;;;;;;;26.30;48.80;;;;;;5036569;28;19968;-71
2020/12/06 10:01:25;;;;;;;;;;;26.40;48.90;;;;;;5036362;28;19912;-73
2020/12/06 10:04:11;;;;;;;;;;;26.50;48.90;;;;;;5035924;28;19920;-74
2020/12/06 10:06:57;;;;;;;;;;;26.50;49.00;;;;;;5057925;28;20003;-73
2020/12/06 10:09:43;;;;;;;;;;;26.50;49.00;;;;;;5037930;28;19955;-73
2020/12/06 10:12:29;;;;;;;;;;;26.60;49.10;;;;;;5042846;28;19920;-69
2020/12/06 10:15:15;;;;;;;;;;;26.50;49.10;;;;;;5042196;28;20027;-74
2020/12/06 10:18:01;;;;;;;;;;;26.60;49.00;;;;;;5041412;28;19913;-76
2020/12/06 10:20:47;;;;;;;;;;;26.60;49.00;;;;;;5038587;28;19920;-69
2020/12/06 10:23:33;;;;;;;;;;;26.60;49.00;;;;;;5037263;28;20017;-75
2020/12/06 10:26:19;;;;;;;;;;;26.60;49.00;;;;;;5040435;28;19959;-73
2020/12/06 10:29:04;;;;;;;;;;;26.60;49.00;;;;;;5041571;28;19933;-68
2020/12/06 10:31:50;;;;;;;;;;;26.70;49.00;;;;;;5044774;28;20265;-76
2020/12/06 10:34:36;;;;;;;;;;;26.70;49.00;;;;;;5041409;28;19913;-74
2020/12/06 10:37:22;;;;;;;;;;;26.80;49.00;;;;;;5038672;28;19979;-71
2020/12/06 10:40:08;;;;;;;;;;;26.90;49.00;;;;;;5045716;28;19955;-74
2020/12/06 10:42:54;;;;;;;;;;;26.90;48.90;;;;;;5038796;28;19921;-69
2020/12/06 10:45:40;;;;;;;;;;;26.90;48.80;;;;;;5037245;28;19913;-71
2020/12/06 10:48:26;;;;;;;;;;;27.00;48.80;;;;;;5041075;28;19921;-73
2020/12/06 10:51:11;;;;;;;;;;;27.00;48.60;;;;;;5040583;28;20013;-80
2020/12/06 10:53:57;;;;;;;;;;;27.00;48.50;;;;;;5035154;28;19913;-79
2020/12/06 10:56:43;;;;;;;;;;;27.00;48.40;;;;;;5041846;28;19913;-66
2020/12/06 10:59:29;;;;;;;;;;;27.10;48.40;;;;;;5040525;28;20252;-69
2020/12/06 11:02:15;;;;;;;;;;;27.10;48.40;;;;;;5042446;28;19913;-68
2020/12/06 11:05:01;;;;;;;;;;;27.10;48.30;;;;;;5039671;28;19913;-75
2020/12/06 11:07:47;;;;;;;;;;;27.10;48.30;;;;;;5042544;28;19925;-67
2020/12/06 11:10:33;;;;;;;;;;;27.10;48.40;;;;;;5039514;28;20433;-72
2020/12/06 11:13:19;;;;;;;;;;;27.10;48.40;;;;;;5037016;28;19963;-68
2020/12/06 11:16:04;;;;;;;;;;;27.20;49.20;;;;;;5040294;28;19917;-69
2020/12/06 11:18:50;;;;;;;;;;;27.20;48.50;;;;;;5040183;28;19959;-67
2020/12/06 11:21:36;;;;;;;;;;;27.20;48.40;;;;;;5042526;28;19924;-69
2020/12/06 11:24:22;;;;;;;;;;;27.30;48.40;;;;;;5047908;28;20350;-68
2020/12/06 11:27:08;;;;;;;;;;;27.30;48.30;;;;;;5039237;28;19955;-70
2020/12/06 11:29:54;;;;;;;;;;;27.40;48.30;;;;;;5036011;28;20284;-76
2020/12/06 11:32:43;;;;;;;;;;;27.40;48.30;;;;;;5039534;28;19917;-69
2020/12/06 11:35:29;;;;;;;;;;;27.50;48.30;;;;;;5035521;28;19917;-70
2020/12/06 11:38:15;;;;;;;;;;;27.50;48.20;;;;;;5040679;28;19949;-70
2020/12/06 11:41:00;;;;;;;;;;;27.50;48.10;;;;;;5032524;28;19920;-69
2020/12/06 11:43:46;;;;;;;;;;;27.50;48.00;;;;;;5037227;28;20016;-69
2020/12/06 11:46:32;;;;;;;;;;;27.50;47.90;;;;;;5050926;28;19967;-73
2020/12/06 11:49:18;;;;;;;;;;;27.60;48.00;;;;;;5039878;28;20024;-75
2020/12/06 11:52:07;;;;;;;;;;;27.50;47.80;;;;;;5034991;28;19996;-68
2020/12/06 11:54:56;;;;;;;;;;;27.60;47.80;;;;;;5035031;28;20368;-69
2020/12/06 11:57:41;;;;;;;;;;;27.60;47.70;;;;;;5040075;28;19913;-68
2020/12/06 12:00:27;;;;;;;;;;;27.60;47.60;;;;;;5040006;28;19919;-73
2020/12/06 12:03:13;;;;;;;;;;;27.60;47.60;;;;;;5037695;28;19917;-71
2020/12/06 12:05:59;;;;;;;;;;;27.60;47.60;;;;;;5038002;28;19912;-77
2020/12/06 12:08:46;;;;;;;;;;;27.60;47.60;;;;;;5038249;28;19929;-69
2020/12/06 12:11:32;;;;;;;;;;;27.60;47.60;;;;;;5036986;28;19921;-74
2020/12/06 12:14:18;;;;;;;;;;;27.60;47.40;;;;;;5037578;28;19994;-75
2020/12/06 12:17:03;;;;;;;;;;;27.70;47.40;;;;;;5036187;28;20379;-75
2020/12/06 12:19:49;;;;;;;;;;;27.70;47.20;;;;;;5043103;28;19947;-74
2020/12/06 12:22:35;;;;;;;;;;;27.70;47.00;;;;;;5041782;28;19916;-77
2020/12/06 12:25:21;;;;;;;;;;;27.80;46.80;;;;;;5040811;28;19913;-69
2020/12/06 12:28:07;;;;;;;;;;;27.80;46.70;;;;;;5042496;28;19947;-72
2020/12/06 12:30:53;;;;;;;;;;;27.80;46.70;;;;;;5040512;28;19928;-73
2020/12/06 12:33:39;;;;;;;;;;;27.80;46.80;;;;;;5038866;28;19913;-71
2020/12/06 12:36:25;;;;;;;;;;;27.70;46.80;;;;;;5036144;28;19913;-73
2020/12/06 12:39:11;;;;;;;;;;;27.70;46.90;;;;;;5036648;28;19913;-74
2020/12/06 12:41:58;;;;;;;;;;;27.70;47.00;;;;;;5035370;28;20422;-68
2020/12/06 12:44:43;;;;;;;;;;;27.80;47.00;;;;;;5033325;28;19925;-71
2020/12/06 12:47:29;;;;;;;;;;;27.80;46.90;;;;;;5034894;28;20012;-67
2020/12/06 12:50:15;;;;;;;;;;;27.80;46.80;;;;;;5035987;28;20015;-70
2020/12/06 12:53:01;;;;;;;;;;;27.80;46.80;;;;;;5041582;28;20426;-68
2020/12/06 12:55:49;;;;;;;;;;;27.80;46.80;;;;;;5035452;28;20410;-70
2020/12/06 12:58:35;;;;;;;;;;;27.80;46.70;;;;;;5032563;28;19917;-67
2020/12/06 13:01:21;;;;;;;;;;;27.80;46.70;;;;;;5036212;28;19919;-72
2020/12/06 13:04:07;;;;;;;;;;;27.80;46.70;;;;;;5039674;28;19963;-68
2020/12/06 13:06:53;;;;;;;;;;;27.80;46.70;;;;;;5026151;28;19944;-68
2020/12/06 13:09:39;;;;;;;;;;;27.80;46.70;;;;;;5036040;28;19960;-69
2020/12/06 13:12:25;;;;;;;;;;;27.80;46.80;;;;;;5032675;28;19920;-70
2020/12/06 13:15:10;;;;;;;;;;;27.80;46.60;;;;;;5038418;28;21118;-69
2020/12/06 13:18:06;;;;;;;;;;;27.90;46.60;;;;;;5040334;28;19924;-80
2020/12/06 13:20:52;;;;;;;;;;;27.80;46.50;;;;;;5037472;28;20364;-74
2020/12/06 13:23:38;;;;;;;;;;;27.90;46.60;;;;;;5034233;28;19920;-69
2020/12/06 13:26:23;;;;;;;;;;;27.90;46.50;;;;;;5040728;28;19913;-73
2020/12/06 13:29:07;;;;;;;;;;;27.90;46.50;;;;;;5037486;28;20384;-75
2020/12/06 13:31:33;;;;;;;;;;;27.90;46.50;;;;;;5034963;28;19972;-75
2020/12/06 13:33:59;;;;;;;;;;;27.90;46.40;;;;;;5034859;28;19917;-76
2020/12/06 13:36:25;;;;;;;;;;;27.90;46.40;;;;;;5037230;28;19948;-74
2020/12/06 13:38:51;;;;;;;;;;;27.90;46.30;;;;;;5035108;28;19966;-67
2020/12/06 13:41:18;;;;;;;;;;;27.90;46.40;;;;;;5035815;28;19913;-72
2020/12/06 13:43:44;;;;;;;;;;;27.90;46.40;;;;;;5037056;28;20036;-76
2020/12/06 13:46:11;;;;;;;;;;;27.90;46.40;;;;;;5037549;28;19928;-77
2020/12/06 13:48:37;;;;;;;;;;;27.90;46.40;;;;;;5041742;28;19925;-75
2020/12/06 13:51:04;;;;;;;;;;;27.90;46.40;;;;;;5039942;28;19920;-75
2020/12/06 13:53:30;;;;;;;;;;;27.80;46.40;;;;;;5042925;28;20648;-75
2020/12/06 13:55:57;;;;;;;;;;;27.80;46.40;;;;;;5043551;28;19909;-76
2020/12/06 13:58:23;;;;;;;;;;;27.80;46.40;;;;;;5037224;28;20008;-71
2020/12/06 14:00:49;;;;;;;;;;;27.80;46.40;;;;;;5042135;28;20009;-71
2020/12/06 14:03:15;;;;;;;;;;;27.80;46.50;;;;;;5044517;28;19913;-72
2020/12/06 14:05:41;;;;;;;;;;;27.80;46.50;;;;;;5042214;28;19913;-72
2020/12/06 14:08:08;;;;;;;;;;;27.80;46.50;;;;;;5036233;28;19948;-71
2020/12/06 14:10:34;;;;;;;;;;;27.80;46.40;;;;;;5037834;28;19913;-74
2020/12/06 14:13:00;;;;;;;;;;;27.80;46.40;;;;;;5038080;28;20004;-74
2020/12/06 14:15:26;;;;;;;;;;;27.80;46.40;;;;;;5039701;28;19948;-71
2020/12/06 14:17:53;;;;;;;;;;;27.80;46.40;;;;;;5044741;28;20514;-74
2020/12/06 14:20:19;;;;;;;;;;;27.80;46.40;;;;;;5038419;28;19963;-71
2020/12/06 14:22:45;;;;;;;;;;;27.70;46.40;;;;;;5047664;28;19952;-73
2020/12/06 14:25:11;;;;;;;;;;;27.80;46.50;;;;;;5043445;28;19917;-72
2020/12/06 14:27:37;;;;;;;;;;;27.80;46.60;;;;;;5042855;28;19975;-74
2020/12/06 14:30:04;;;;;;;;;;;27.70;46.50;;;;;;5043056;28;19967;-74
2020/12/06 14:32:30;;;;;;;;;;;27.70;46.60;;;;;;5048251;28;19913;-74
2020/12/06 14:34:56;;;;;;;;;;;27.70;46.60;;;;;;5047928;28;19968;-71
2020/12/06 14:37:22;;;;;;;;;;;27.60;46.60;;;;;;5042414;28;19917;-72
2020/12/06 14:39:49;;;;;;;;;;;27.60;46.60;;;;;;5045130;28;19937;-75
2020/12/06 14:42:47;;;;;;;;;;;27.60;46.60;;;;;;5039308;28;20007;-72
2020/12/06 14:45:13;;;;;;;;;;;27.60;46.70;;;;;;5038320;28;19917;-69
2020/12/06 14:47:39;;;;;;;;;;;27.60;46.70;;;;;;5041076;28;19921;-72
2020/12/06 14:50:05;;;;;;;;;;;27.60;46.80;;;;;;5041987;28;19917;-73
2020/12/06 14:52:34;;;;;;;;;;;27.60;46.90;;;;;;5042350;28;19917;-73
2020/12/06 14:55:03;;;;;;;;;;;27.50;46.90;;;;;;5039761;28;19921;-73
2020/12/06 14:57:30;;;;;;;;;;;27.50;47.00;;;;;;5043959;28;19967;-72
2020/12/06 14:59:56;;;;;;;;;;;27.50;47.10;;;;;;5043474;28;19913;-73
2020/12/06 15:02:22;;;;;;;;;;;27.50;47.20;;;;;;5038263;28;19917;-73
2020/12/06 15:04:48;;;;;;;;;;;27.50;47.30;;;;;;5038707;28;19913;-75
2020/12/06 15:07:14;;;;;;;;;;;27.50;47.30;;;;;;5039851;28;20273;-71